Time;durP1;ratioP1;P1;durP2;ratioP2;P2;SDS_P1;SDS_P2;PMS_P1;PMS_P2;Temp;Humidity;BMP_temperature;BMP_pressure;BME280_temperature;BME280_humidity;BME280_pressure;Samples;Min_cycle;Max_cycle;Signal;HPM_P1;HPM_P2
2021/10/03 00:01:41;;;;;;;6.30;4.37;;;;;;;16.61;68.36;100219.16;4995734;28;20184;-77
2021/10/03 00:04:08;;;;;;;6.57;4.73;;;;;;;16.64;68.42;100217.41;4994307;28;20220;-78
2021/10/03 00:06:34;;;;;;;5.93;4.37;;;;;;;16.72;67.97;100209.53;4997331;28;20275;-76
2021/10/03 00:09:00;;;;;;;6.77;4.90;;;;;;;16.80;68.00;100202.53;5006996;28;20202;-78
2021/10/03 00:11:25;;;;;;;6.23;4.83;;;;;;;16.87;67.70;100204.13;4989253;28;20272;-78
2021/10/03 00:13:51;;;;;;;7.23;5.20;;;;;;;16.88;68.05;100203.22;4994193;28;20299;-78
2021/10/03 00:16:16;;;;;;;6.20;4.80;;;;;;;16.85;68.35;100192.94;4993708;28;20200;-77
2021/10/03 00:18:42;;;;;;;5.87;4.63;;;;;;;16.82;68.48;100193.00;4978732;28;20196;-78
2021/10/03 00:21:10;;;;;;;5.43;4.60;;;;;;;16.79;68.76;100191.31;4978432;28;20200;-78
2021/10/03 00:23:36;;;;;;;6.07;4.77;;;;;;;16.77;69.12;100192.22;4993497;28;20201;-76
2021/10/03 00:26:01;;;;;;;7.23;4.70;;;;;;;16.78;68.87;100186.16;4978081;28;20208;-79
2021/10/03 00:28:27;;;;;;;6.97;5.20;;;;;;;16.79;69.09;100186.13;4986208;28;20192;-78
2021/10/03 00:30:52;;;;;;;5.80;4.87;;;;;;;16.83;68.85;100182.63;4991818;28;20646;-77
2021/10/03 00:33:17;;;;;;;5.60;4.77;;;;;;;16.84;69.32;100186.03;4975536;28;20224;-78
2021/10/03 00:35:43;;;;;;;7.90;5.07;;;;;;;16.87;68.55;100171.34;4977074;28;20208;-79
2021/10/03 00:38:09;;;;;;;6.90;5.23;;;;;;;16.92;69.05;100185.06;4993041;28;20201;-76
2021/10/03 00:40:39;;;;;;;6.50;5.00;;;;;;;16.98;68.50;100171.16;5008391;28;20188;-78
2021/10/03 00:43:07;;;;;;;9.57;5.10;;;;;;;17.03;68.52;100154.69;4991965;28;20216;-77
2021/10/03 00:45:34;;;;;;;7.43;5.03;;;;;;;17.09;68.27;100171.84;4991937;28;20616;-77
2021/10/03 00:48:00;;;;;;;6.87;5.17;;;;;;;17.16;68.08;100169.09;4996987;28;20184;-77
2021/10/03 00:50:27;;;;;;;7.43;5.23;;;;;;;17.18;68.22;100153.56;4996371;28;20195;-78
2021/10/03 00:52:53;;;;;;;5.50;4.93;;;;;;;17.22;68.29;100142.28;4998845;28;20224;-78
2021/10/03 00:55:20;;;;;;;6.67;4.87;;;;;;;17.20;68.47;100144.88;5017554;28;20199;-77
2021/10/03 00:57:49;;;;;;;7.03;5.07;;;;;;;17.26;68.28;100146.47;4993845;28;20214;-78
2021/10/03 01:00:16;;;;;;;5.73;4.90;;;;;;;17.30;67.71;100136.06;4994352;28;20196;-76
2021/10/03 01:02:42;;;;;;;6.23;5.50;;;;;;;17.36;67.43;100129.91;4993885;28;20204;-77
2021/10/03 01:05:08;;;;;;;6.40;5.20;;;;;;;17.38;67.71;100138.50;4996400;28;20188;-77
2021/10/03 01:07:35;;;;;;;6.47;5.10;;;;;;;17.41;67.14;100123.78;4999017;28;20290;-78
2021/10/03 01:10:00;;;;;;;8.07;5.30;;;;;;;17.47;67.34;100128.84;4990492;28;20175;-77
2021/10/03 01:12:26;;;;;;;6.97;5.10;;;;;;;17.49;67.31;100123.63;5016279;28;20711;-78
2021/10/03 01:14:52;;;;;;;6.60;5.23;;;;;;;17.51;67.42;100121.88;5015430;28;20217;-79
2021/10/03 01:17:17;;;;;;;7.43;5.23;;;;;;;17.58;67.06;100115.66;5013800;28;20195;-77
2021/10/03 01:19:42;;;;;;;6.90;5.40;;;;;;;17.65;66.69;100104.31;4983847;28;20204;-77
2021/10/03 01:22:08;;;;;;;6.87;5.23;;;;;;;17.62;67.05;100106.97;4974920;28;20356;-77
2021/10/03 01:24:33;;;;;;;6.57;5.00;;;;;;;17.67;66.95;100113.75;4976668;28;20188;-77
2021/10/03 01:27:01;;;;;;;6.07;5.47;;;;;;;17.64;66.50;100098.28;4977090;28;20180;-78
2021/10/03 01:29:28;;;;;;;6.77;5.30;;;;;;;17.73;66.25;100094.66;4991707;28;20550;-76
2021/10/03 01:31:53;;;;;;;8.67;5.17;;;;;;;17.67;66.92;100087.84;4992068;28;20288;-77
2021/10/03 01:34:18;;;;;;;8.73;5.43;;;;;;;17.68;66.90;100089.56;4975288;28;20664;-77
2021/10/03 01:36:44;;;;;;;6.17;5.27;;;;;;;17.80;66.48;100085.84;4976524;28;20283;-77
2021/10/03 01:39:10;;;;;;;7.63;5.57;;;;;;;17.77;66.59;100065.22;4974992;28;20188;-78
2021/10/03 01:41:36;;;;;;;5.80;4.80;;;;;;;17.83;66.44;100098.75;4991418;28;20196;-78
2021/10/03 01:44:02;;;;;;;7.83;5.30;;;;;;;17.92;65.91;100107.16;4974661;28;20208;-77
2021/10/03 01:46:27;;;;;;;7.00;5.37;;;;;;;17.93;65.85;100102.84;4976074;28;20192;-78
2021/10/03 01:48:53;;;;;;;6.70;5.70;;;;;;;17.95;65.81;100095.88;4977726;28;20181;-78
2021/10/03 01:51:19;;;;;;;6.40;5.13;;;;;;;18.00;66.32;100088.88;4992536;28;20196;-77
2021/10/03 01:53:51;;;;;;;7.80;5.20;;;;;;;18.23;64.80;100097.78;5009453;28;20247;-79
2021/10/03 01:56:17;;;;;;;10.00;5.37;;;;;;;18.28;64.67;100095.94;4978414;28;20200;-78
2021/10/03 01:58:56;;;;;;;6.47;5.30;;;;;;;18.27;64.59;100098.56;4991237;28;20193;-79
2021/10/03 02:01:48;;;;;;;7.67;5.30;;;;;;;18.22;65.15;100106.47;4975774;28;20204;-77
2021/10/03 02:04:15;;;;;;;6.33;5.00;;;;;;;18.33;64.58;100106.25;4979467;28;20710;-78
2021/10/03 02:06:44;;;;;;;5.70;5.10;;;;;;;18.45;64.45;100100.75;4992592;28;20281;-79
2021/10/03 02:09:11;;;;;;;6.10;4.63;;;;;;;18.46;64.59;100092.94;5002538;28;20200;-78
2021/10/03 02:11:41;;;;;;;6.03;4.83;;;;;;;18.53;64.51;100093.66;5017449;28;20258;-77
2021/10/03 02:14:06;;;;;;;5.87;4.90;;;;;;;18.73;63.84;100093.97;5015863;28;20210;-78
2021/10/03 02:16:31;;;;;;;5.03;4.43;;;;;;;18.77;63.68;100090.41;5015834;28;20278;-79
2021/10/03 02:18:56;;;;;;;6.87;4.33;;;;;;;18.76;63.93;100081.81;5014107;28;20222;-78
2021/10/03 02:21:22;;;;;;;5.70;4.23;;;;;;;18.77;64.27;100078.31;5014888;28;20187;-78
2021/10/03 02:23:47;;;;;;;5.50;4.43;;;;;;;18.69;64.73;100071.59;5011594;28;20219;-76
2021/10/03 02:26:13;;;;;;;8.10;4.73;;;;;;;18.75;64.41;100072.28;4997763;28;20274;-80
2021/10/03 02:28:38;;;;;;;8.73;4.73;;;;;;;18.81;64.23;100061.78;4973041;28;20200;-79
2021/10/03 02:31:08;;;;;;;6.23;5.00;;;;;;;18.90;63.59;100055.47;5041526;28;20195;-77
2021/10/03 02:33:36;;;;;;;4.97;4.47;;;;;;;18.99;63.27;100058.69;5013752;28;20250;-78
2021/10/03 02:36:03;;;;;;;5.23;4.33;;;;;;;19.03;63.39;100052.50;5013447;28;20183;-77
2021/10/03 02:38:28;;;;;;;5.13;4.63;;;;;;;19.05;63.50;100044.69;5013413;28;20187;-78
2021/10/03 02:40:56;;;;;;;5.53;4.40;;;;;;;19.05;62.98;100055.91;5001755;28;20179;-78
2021/10/03 02:43:28;;;;;;;5.23;4.27;;;;;;;19.09;63.16;100054.94;5004387;28;20216;-78
2021/10/03 02:45:54;;;;;;;5.23;4.17;;;;;;;19.05;63.44;100049.88;4991740;28;20191;-78
2021/10/03 02:48:22;;;;;;;5.40;4.60;;;;;;;19.08;62.97;100048.06;5017940;28;20191;-76
2021/10/03 02:50:49;;;;;;;5.03;4.27;;;;;;;19.12;63.23;100046.22;4994245;28;20191;-77
2021/10/03 02:53:16;;;;;;;5.40;4.30;;;;;;;19.06;62.95;100042.03;5011792;28;20225;-77
2021/10/03 02:55:41;;;;;;;5.43;4.10;;;;;;;19.03;63.36;100047.31;5011003;28;20195;-77
2021/10/03 02:58:07;;;;;;;5.63;4.20;;;;;;;19.09;62.91;100060.13;5000603;28;20204;-77
2021/10/03 03:00:35;;;;;;;6.60;4.43;;;;;;;19.01;63.64;100062.09;4987290;28;20192;-79
2021/10/03 03:03:00;;;;;;;7.10;4.77;;;;;;;19.09;63.02;100060.13;5004695;28;20239;-79
2021/10/03 03:05:26;;;;;;;5.87;4.60;;;;;;;19.04;63.15;100062.00;4972269;28;20188;-77
2021/10/03 03:07:51;;;;;;;6.57;4.17;;;;;;;19.04;63.19;100048.16;4985434;28;20214;-77
2021/10/03 03:10:17;;;;;;;5.63;4.47;;;;;;;19.06;63.08;100061.94;5002075;28;20201;-78
2021/10/03 03:12:42;;;;;;;7.00;4.23;;;;;;;19.04;63.59;100055.97;5011567;28;20234;-77
2021/10/03 03:15:09;;;;;;;5.37;3.90;;;;;;;19.04;63.50;100059.41;5011352;28;20232;-77
2021/10/03 03:17:35;;;;;;;4.67;4.00;;;;;;;19.10;63.31;100058.38;4998681;28;20208;-78
2021/10/03 03:20:00;;;;;;;5.10;4.50;;;;;;;19.01;64.02;100054.31;4987738;28;20189;-78
2021/10/03 03:22:26;;;;;;;4.73;4.27;;;;;;;18.97;64.13;100050.09;4988033;28;20195;-78
2021/10/03 03:24:52;;;;;;;4.57;4.17;;;;;;;18.99;63.95;100048.31;4971678;28;20199;-77
2021/10/03 03:27:17;;;;;;;6.37;4.37;;;;;;;18.96;64.20;100040.59;4988647;28;20184;-76
2021/10/03 03:29:42;;;;;;;5.30;4.60;;;;;;;18.95;64.28;100032.84;4988965;28;20212;-77
2021/10/03 03:32:08;;;;;;;4.30;3.90;;;;;;;18.95;64.35;100032.84;5005425;28;20243;-77
2021/10/03 03:34:33;;;;;;;4.93;4.43;;;;;;;18.95;64.48;100033.72;4978496;28;20196;-77
2021/10/03 03:36:58;;;;;;;4.90;4.43;;;;;;;18.95;64.12;100035.44;4972102;28;20193;-78
2021/10/03 03:39:24;;;;;;;5.07;4.30;;;;;;;18.95;63.97;100035.44;4974669;28;20184;-78
2021/10/03 03:41:49;;;;;;;5.33;4.17;;;;;;;18.89;64.55;100033.03;5008913;28;20271;-80
2021/10/03 03:44:14;;;;;;;4.97;4.50;;;;;;;18.91;63.73;100042.47;4993214;28;20725;-77
2021/10/03 03:46:40;;;;;;;5.13;4.60;;;;;;;18.90;64.00;100053.75;4977772;28;20650;-76
2021/10/03 03:49:05;;;;;;;5.00;4.40;;;;;;;18.89;64.12;100048.59;4993043;28;20619;-76
2021/10/03 03:51:30;;;;;;;5.10;4.60;;;;;;;18.88;63.45;100044.31;4978055;28;20213;-77
2021/10/03 03:53:56;;;;;;;5.23;4.63;;;;;;;18.82;64.25;100049.63;5009889;28;20252;-77
2021/10/03 03:56:21;;;;;;;4.60;4.20;;;;;;;18.88;62.94;100054.69;4992546;28;20189;-78
2021/10/03 03:58:46;;;;;;;5.13;4.43;;;;;;;18.85;63.66;100054.75;4976747;28;20627;-78
2021/10/03 04:01:12;;;;;;;5.40;4.83;;;;;;;18.78;63.93;100050.59;4991332;28;20196;-79
2021/10/03 04:03:37;;;;;;;7.17;4.70;;;;;;;18.76;64.06;100055.88;4991916;28;20255;-77
2021/10/03 04:06:03;;;;;;;5.33;4.43;;;;;;;18.72;64.28;100050.78;4991426;28;20192;-79
2021/10/03 04:08:28;;;;;;;7.07;4.50;;;;;;;18.69;64.38;100050.84;5008963;28;20582;-78
2021/10/03 04:10:54;;;;;;;5.10;4.60;;;;;;;18.66;64.45;100036.22;5001928;28;20287;-78
2021/10/03 04:13:20;;;;;;;5.27;4.73;;;;;;;18.61;64.70;100045.88;4995809;28;20258;-77
2021/10/03 04:15:46;;;;;;;5.97;4.70;;;;;;;18.59;64.62;100055.44;4994293;28;20195;-77
2021/10/03 04:18:12;;;;;;;4.90;4.30;;;;;;;18.57;64.47;100052.03;4994312;28;20200;-78
2021/10/03 04:20:38;;;;;;;5.30;4.73;;;;;;;18.50;65.13;100052.22;4994973;28;20191;-79
2021/10/03 04:23:04;;;;;;;5.60;4.60;;;;;;;18.45;64.95;100049.75;5001601;28;20282;-77
2021/10/03 04:25:29;;;;;;;6.53;4.87;;;;;;;18.39;65.19;100052.50;4984977;28;20235;-76
2021/10/03 04:27:55;;;;;;;4.70;4.20;;;;;;;18.36;65.04;100052.56;4996926;28;20200;-79
2021/10/03 04:30:20;;;;;;;6.27;4.73;;;;;;;18.37;65.05;100058.63;5001915;28;20255;-78
2021/10/03 04:32:45;;;;;;;5.87;4.50;;;;;;;18.35;65.00;100063.84;5006031;28;20741;-77
2021/10/03 04:35:11;;;;;;;6.77;4.93;;;;;;;18.34;64.88;100062.13;5030988;28;20195;-78
2021/10/03 04:37:36;;;;;;;6.50;4.90;;;;;;;18.32;65.35;100063.88;5011781;28;20680;-79
2021/10/03 04:40:03;;;;;;;6.87;4.63;;;;;;;18.34;64.79;100069.06;5004534;28;20196;-77
2021/10/03 04:42:28;;;;;;;5.40;4.67;;;;;;;18.36;64.78;100069.88;5013310;28;20227;-77
2021/10/03 04:44:55;;;;;;;6.13;4.10;;;;;;;18.34;64.82;100066.47;4996506;28;20188;-78
2021/10/03 04:47:20;;;;;;;5.47;4.63;;;;;;;18.34;64.79;100061.28;4993468;28;20199;-77
2021/10/03 04:49:48;;;;;;;7.00;5.00;;;;;;;18.32;64.63;100065.59;5017749;28;20188;-76
2021/10/03 04:52:14;;;;;;;6.10;4.73;;;;;;;18.31;65.03;100062.19;4991186;28;20579;-77
2021/10/03 04:54:39;;;;;;;4.63;4.23;;;;;;;18.32;64.89;100066.47;5002494;28;20180;-78
2021/10/03 04:57:04;;;;;;;6.77;4.73;;;;;;;18.37;64.96;100069.00;4996959;28;20195;-76
2021/10/03 04:59:30;;;;;;;4.70;4.30;;;;;;;18.35;65.10;100068.16;5014138;28;20195;-78
2021/10/03 05:01:55;;;;;;;5.13;4.63;;;;;;;18.39;64.24;100068.06;4996747;28;20223;-77
2021/10/03 05:04:20;;;;;;;7.67;4.53;;;;;;;18.38;64.98;100068.94;5007014;28;20219;-78
2021/10/03 05:06:46;;;;;;;5.50;4.33;;;;;;;18.38;64.86;100070.69;5016240;28;20602;-78
2021/10/03 05:09:11;;;;;;;5.50;4.50;;;;;;;18.40;64.87;100064.59;4998204;28;20534;-77
2021/10/03 05:11:36;;;;;;;6.63;4.83;;;;;;;18.41;65.03;100061.09;5000712;28;20200;-79
2021/10/03 05:14:06;;;;;;;4.93;4.33;;;;;;;18.42;64.73;100055.00;4993013;28;20226;-78
2021/10/03 05:16:32;;;;;;;6.50;4.17;;;;;;;18.45;64.80;100054.94;5011258;28;20199;-78
2021/10/03 05:18:58;;;;;;;4.53;4.10;;;;;;;18.50;64.54;100055.69;5015733;28;20184;-77
2021/10/03 05:21:23;;;;;;;6.63;4.90;;;;;;;18.51;64.31;100056.53;5009242;28;20566;-78
2021/10/03 05:23:49;;;;;;;6.63;3.90;;;;;;;18.53;64.41;100062.53;5010993;28;20231;-78
2021/10/03 05:26:14;;;;;;;4.87;4.37;;;;;;;18.52;63.99;100066.84;4993075;28;20204;-78
2021/10/03 05:28:40;;;;;;;5.87;4.90;;;;;;;18.51;64.46;100054.78;5005551;28;20199;-78
2021/10/03 05:31:05;;;;;;;4.93;4.40;;;;;;;18.51;64.50;100064.31;5011517;28;20184;-79
2021/10/03 05:33:32;;;;;;;4.67;4.17;;;;;;;18.55;64.13;100052.94;5005974;28;20254;-79
2021/10/03 05:35:57;;;;;;;5.30;4.20;;;;;;;18.59;64.07;100058.03;5011991;28;20196;-79
2021/10/03 05:38:22;;;;;;;4.37;3.90;;;;;;;18.57;64.10;100053.78;5002324;28;20271;-78
2021/10/03 05:40:48;;;;;;;5.23;4.47;;;;;;;18.52;64.69;100053.88;5001642;28;20197;-77
2021/10/03 05:43:13;;;;;;;4.50;4.10;;;;;;;18.55;64.41;100060.72;5004206;28;20220;-77
2021/10/03 05:45:38;;;;;;;4.37;3.97;;;;;;;18.57;64.17;100059.81;5025417;28;20192;-78
2021/10/03 05:48:04;;;;;;;4.93;4.20;;;;;;;18.53;65.25;100057.34;4993394;28;20184;-79
2021/10/03 05:50:29;;;;;;;6.67;4.50;;;;;;;18.45;66.00;100065.31;4975413;28;20183;-78
2021/10/03 05:52:54;;;;;;;5.17;3.93;;;;;;;18.40;65.88;100063.72;4998252;28;20224;-77
2021/10/03 05:55:20;;;;;;;5.50;4.20;;;;;;;18.32;66.31;100061.28;5000246;28;20275;-79
2021/10/03 05:57:45;;;;;;;5.30;3.80;;;;;;;18.29;66.40;100057.91;5012845;28;20226;-79
2021/10/03 06:00:11;;;;;;;7.67;4.40;;;;;;;18.26;65.85;100060.56;5011053;28;20219;-78
2021/10/03 06:02:36;;;;;;;4.20;3.80;;;;;;;18.23;66.08;100058.91;5000109;28;20634;-78
2021/10/03 06:05:04;;;;;;;4.73;4.07;;;;;;;18.23;66.02;100063.25;4986881;28;20237;-78
2021/10/03 06:07:29;;;;;;;6.40;4.30;;;;;;;18.21;65.61;100071.06;5002686;28;20224;-77
2021/10/03 06:09:55;;;;;;;5.83;3.70;;;;;;;18.20;65.98;100056.38;5005727;28;20183;-79
2021/10/03 06:12:20;;;;;;;6.53;4.30;;;;;;;18.19;66.07;100059.03;4995621;28;20628;-78
2021/10/03 06:14:45;;;;;;;5.70;4.33;;;;;;;18.21;66.08;100062.44;5005843;28;20194;-78
2021/10/03 06:17:11;;;;;;;4.50;4.10;;;;;;;18.22;66.35;100059.81;4994699;28;20186;-78
2021/10/03 06:19:36;;;;;;;5.03;3.80;;;;;;;18.21;66.26;100071.06;5030401;28;20186;-77
2021/10/03 06:22:02;;;;;;;4.50;4.03;;;;;;;18.22;66.53;100082.28;4997999;28;20187;-77
2021/10/03 06:24:28;;;;;;;7.33;4.50;;;;;;;18.22;66.63;100075.34;4979273;28;20212;-77
2021/10/03 06:26:53;;;;;;;5.67;4.30;;;;;;;18.24;66.49;100067.56;5004416;28;20183;-78
2021/10/03 06:29:19;;;;;;;4.43;4.03;;;;;;;18.25;66.24;100070.13;5007032;28;20244;-78
2021/10/03 06:31:44;;;;;;;4.80;4.07;;;;;;;18.25;66.43;100072.72;5013560;28;20207;-76
2021/10/03 06:34:10;;;;;;;5.67;3.83;;;;;;;18.27;66.65;100073.50;5008073;28;20246;-77
2021/10/03 06:36:35;;;;;;;9.00;4.27;;;;;;;18.28;66.48;100070.03;4988689;28;20188;-77
2021/10/03 06:39:00;;;;;;;5.17;4.07;;;;;;;18.29;66.48;100086.44;5003374;28;20206;-78
2021/10/03 06:41:26;;;;;;;4.67;3.83;;;;;;;18.33;66.63;100075.16;4999770;28;20199;-78
2021/10/03 06:43:51;;;;;;;4.50;4.10;;;;;;;18.36;66.22;100073.31;4994571;28;20227;-78
2021/10/03 06:46:17;;;;;;;4.33;3.77;;;;;;;18.38;65.94;100081.06;4992178;28;20278;-77
2021/10/03 06:48:43;;;;;;;6.53;4.50;;;;;;;18.42;66.07;100082.69;4992743;28;20275;-77
2021/10/03 06:51:08;;;;;;;4.27;3.87;;;;;;;18.45;65.71;100075.69;4980603;28;20196;-77
2021/10/03 06:53:34;;;;;;;6.47;3.57;;;;;;;18.49;65.50;100087.69;5001543;28;20211;-77
2021/10/03 06:56:01;;;;;;;5.03;3.83;;;;;;;18.52;65.91;100086.75;5008675;28;20242;-77
2021/10/03 06:58:27;;;;;;;5.40;4.27;;;;;;;18.59;66.24;100093.47;4997444;28;20231;-78
2021/10/03 07:00:52;;;;;;;5.07;4.03;;;;;;;18.62;65.35;100090.81;5003470;28;20171;-79
2021/10/03 07:03:18;;;;;;;5.20;4.10;;;;;;;18.66;65.34;100089.84;5010604;28;20707;-78
2021/10/03 07:05:43;;;;;;;5.07;4.17;;;;;;;18.77;65.36;100093.03;4981754;28;20570;-77
2021/10/03 07:08:08;;;;;;;5.47;3.60;;;;;;;18.83;65.03;100101.50;4995538;28;20183;-78
2021/10/03 07:10:34;;;;;;;5.50;3.90;;;;;;;18.88;65.01;100104.81;4997577;28;20604;-79
2021/10/03 07:12:59;;;;;;;5.83;3.93;;;;;;;18.95;64.70;100101.19;5013320;28;20215;-78
2021/10/03 07:15:24;;;;;;;5.70;3.90;;;;;;;18.99;64.39;100092.44;5007524;28;20292;-78
2021/10/03 07:17:50;;;;;;;5.33;4.50;;;;;;;18.96;64.76;100102.88;5008864;28;20191;-78
2021/10/03 07:20:15;;;;;;;5.70;3.77;;;;;;;18.96;64.45;100107.22;5000146;28;20238;-78
2021/10/03 07:22:41;;;;;;;6.10;4.43;;;;;;;18.94;64.58;100102.09;4998648;28;20247;-79
2021/10/03 07:25:09;;;;;;;5.83;4.50;;;;;;;18.94;64.41;100104.69;4998161;28;20207;-78
2021/10/03 07:27:35;;;;;;;4.10;3.63;;;;;;;18.93;65.13;100115.09;5004567;28;20234;-77
2021/10/03 07:30:00;;;;;;;4.63;4.07;;;;;;;18.92;65.04;100115.97;5001536;28;20674;-78
2021/10/03 07:32:26;;;;;;;5.03;4.23;;;;;;;18.92;64.87;100108.19;5008607;28;20235;-77
2021/10/03 07:34:52;;;;;;;5.37;4.00;;;;;;;18.87;64.57;100117.81;4978585;28;20296;-78
2021/10/03 07:37:17;;;;;;;6.07;4.17;;;;;;;18.85;64.75;100130.88;4979702;28;20781;-79
2021/10/03 07:39:43;;;;;;;4.80;4.17;;;;;;;18.89;64.54;100118.66;4978142;28;20232;-78
2021/10/03 07:42:08;;;;;;;4.07;3.60;;;;;;;18.91;64.65;100129.84;4978005;28;20268;-78
2021/10/03 07:44:33;;;;;;;5.20;3.70;;;;;;;18.89;64.53;100123.84;4977982;28;20270;-78
2021/10/03 07:46:59;;;;;;;6.43;3.77;;;;;;;18.87;64.57;100128.22;4993227;28;20196;-77
2021/10/03 07:49:24;;;;;;;8.00;3.97;;;;;;;18.86;64.80;100126.50;4979236;28;20205;-79
2021/10/03 07:51:50;;;;;;;4.50;3.83;;;;;;;18.83;65.05;100134.41;4994416;28;20211;-77
2021/10/03 07:54:16;;;;;;;4.97;3.80;;;;;;;18.77;65.54;100135.41;4998039;28;20273;-78
2021/10/03 07:56:41;;;;;;;4.03;3.63;;;;;;;18.72;65.86;100136.38;5010245;28;20191;-78
2021/10/03 07:59:07;;;;;;;5.67;3.57;;;;;;;18.68;66.17;100139.94;4999605;28;20198;-77
2021/10/03 08:01:32;;;;;;;4.47;3.93;;;;;;;18.76;65.92;100135.44;5015596;28;20191;-77
2021/10/03 08:03:58;;;;;;;4.37;3.87;;;;;;;18.67;66.11;100136.53;5014682;28;20215;-78
2021/10/03 08:06:27;;;;;;;3.90;3.50;;;;;;;18.68;66.20;100138.22;5005557;28;20565;-77
2021/10/03 08:08:52;;;;;;;5.73;3.20;;;;;;;18.66;66.06;100145.16;4978881;28;20189;-77
2021/10/03 08:11:17;;;;;;;5.40;3.87;;;;;;;18.68;65.92;100139.94;4994092;28;20203;-78
2021/10/03 08:13:43;;;;;;;5.30;4.00;;;;;;;18.63;65.93;100145.25;4979273;28;20705;-78
2021/10/03 08:16:08;;;;;;;4.60;3.60;;;;;;;18.61;66.33;100143.59;4978364;28;20196;-78
2021/10/03 08:18:35;;;;;;;5.00;3.90;;;;;;;18.65;66.40;100137.44;4977340;28;20204;-77
2021/10/03 08:21:01;;;;;;;5.17;4.00;;;;;;;18.66;65.76;100137.38;4978390;28;20199;-78
2021/10/03 08:23:26;;;;;;;4.70;3.70;;;;;;;18.63;65.80;100126.25;4995507;28;20216;-80
2021/10/03 08:25:52;;;;;;;5.93;4.20;;;;;;;18.67;65.58;100135.66;4979267;28;20189;-77
2021/10/03 08:28:17;;;;;;;5.40;4.07;;;;;;;18.66;65.62;100132.19;5006724;28;20220;-76
2021/10/03 08:30:42;;;;;;;4.10;3.70;;;;;;;18.73;65.21;100128.56;5007479;28;20193;-77
2021/10/03 08:33:08;;;;;;;3.83;3.30;;;;;;;18.79;65.11;100128.41;4977047;28;20216;-77
2021/10/03 08:35:34;;;;;;;4.40;3.50;;;;;;;18.91;64.79;100122.91;4977030;28;20212;-76
2021/10/03 08:38:01;;;;;;;5.93;4.07;;;;;;;18.96;64.46;100115.00;5009100;28;20590;-79
2021/10/03 08:40:29;;;;;;;6.00;4.23;;;;;;;19.13;63.68;100118.88;4977347;28;20196;-78
2021/10/03 08:42:54;;;;;;;4.60;3.60;;;;;;;19.20;63.11;100117.78;4991771;28;20236;-77
2021/10/03 08:45:20;;;;;;;4.87;3.83;;;;;;;19.40;62.97;100120.72;4976954;28;20180;-78
2021/10/03 08:47:45;;;;;;;6.10;3.93;;;;;;;19.52;62.67;100109.13;4977024;28;20227;-77
2021/10/03 08:50:15;;;;;;;5.80;4.07;;;;;;;19.62;61.92;100118.38;4994340;28;20220;-78
2021/10/03 08:52:43;;;;;;;4.20;3.80;;;;;;;19.94;61.66;100113.91;4978875;28;20228;-78
2021/10/03 08:55:10;;;;;;;5.27;3.90;;;;;;;20.15;60.48;100112.44;5005750;28;20192;-79
2021/10/03 08:57:36;;;;;;;7.40;4.13;;;;;;;20.30;59.87;100112.81;5002208;28;20319;-78
2021/10/03 09:00:19;;;;;;;4.83;3.90;;;;;;;20.51;59.33;100108.69;4978229;28;20228;-78
2021/10/03 09:03:06;;;;;;;5.47;3.73;;;;;;;20.32;60.83;100121.41;4977636;28;20254;-78
2021/10/03 09:05:40;;;;;;;3.90;3.50;;;;;;;20.04;61.36;100127.50;4976423;28;20220;-78
2021/10/03 09:08:07;;;;;;;5.90;3.90;;;;;;;19.99;61.97;100125.03;4991551;28;20657;-78
2021/10/03 09:11:00;;;;;;;4.27;3.80;;;;;;;20.13;61.82;100132.47;4976520;28;20181;-79
2021/10/03 09:13:32;;;;;;;6.30;3.90;;;;;;;19.90;61.71;100127.06;4974990;28;20224;-78
2021/10/03 09:16:25;;;;;;;6.73;3.77;;;;;;;19.85;62.17;100139.34;5021696;28;20228;-78
2021/10/03 09:18:54;;;;;;;4.90;3.83;;;;;;;19.76;63.01;100144.81;5007722;28;20276;-78
2021/10/03 09:21:29;;;;;;;4.73;3.60;;;;;;;19.77;63.87;100149.13;5006525;28;20295;-78
2021/10/03 09:23:59;;;;;;;4.37;3.93;;;;;;;19.65;63.00;100144.25;5007270;28;20210;-79
2021/10/03 09:26:25;;;;;;;6.10;4.10;;;;;;;19.57;63.61;100154.88;4989619;28;20192;-78
2021/10/03 09:28:50;;;;;;;4.33;3.70;;;;;;;19.66;64.26;100146.81;5006015;28;20267;-78
2021/10/03 09:31:17;;;;;;;5.27;4.30;;;;;;;19.49;63.90;100154.22;4978015;28;20204;-78
2021/10/03 09:33:57;;;;;;;6.43;4.10;;;;;;;19.50;63.84;100161.16;4993624;28;20215;-78
2021/10/03 09:36:30;;;;;;;3.97;3.57;;;;;;;19.47;63.49;100155.16;4993880;28;20223;-78
2021/10/03 09:39:02;;;;;;;5.10;4.30;;;;;;;19.34;64.56;100172.84;5009478;28;20196;-78
2021/10/03 09:41:34;;;;;;;5.93;3.73;;;;;;;19.34;65.01;100140.84;4978451;28;20274;-77
2021/10/03 09:44:07;;;;;;;5.23;4.00;;;;;;;19.24;64.12;100155.81;4995837;28;20212;-78
2021/10/03 09:46:38;;;;;;;3.83;3.37;;;;;;;19.31;64.44;100157.34;4995212;28;20207;-78
2021/10/03 09:49:10;;;;;;;4.33;3.63;;;;;;;19.29;64.38;100158.25;4993812;28;20200;-77
2021/10/03 09:51:36;;;;;;;6.80;3.63;;;;;;;19.24;65.23;100160.13;4993581;28;20657;-78
2021/10/03 09:54:04;;;;;;;5.47;4.00;;;;;;;19.27;64.88;100160.94;4982625;28;20302;-78
2021/10/03 09:56:31;;;;;;;5.17;3.80;;;;;;;19.19;63.96;100155.03;5005631;28;20195;-78
2021/10/03 09:58:59;;;;;;;4.37;3.97;;;;;;;19.31;64.77;100153.91;5013437;28;20198;-77
2021/10/03 10:01:24;;;;;;;4.37;3.87;;;;;;;19.30;64.13;100160.00;5013830;28;20230;-78
2021/10/03 10:03:50;;;;;;;4.07;3.67;;;;;;;19.36;63.44;100155.47;5015835;28;20203;-77
2021/10/03 10:06:17;;;;;;;5.43;4.27;;;;;;;19.35;63.23;100151.16;4989984;28;20200;-78
2021/10/03 10:08:43;;;;;;;4.17;3.77;;;;;;;19.36;62.43;100152.03;4976036;28;20626;-77
2021/10/03 10:11:36;;;;;;;3.97;3.60;;;;;;;19.47;62.36;100155.16;4977072;28;20713;-78
2021/10/03 10:14:04;;;;;;;4.50;3.60;;;;;;;19.50;62.19;100157.69;4976726;28;20247;-78
2021/10/03 10:16:32;;;;;;;4.30;3.90;;;;;;;19.50;61.73;100155.97;4995891;28;20185;-79
2021/10/03 10:19:38;;;;;;;4.27;3.87;;;;;;;19.69;61.47;100157.13;4987612;28;20199;-78
2021/10/03 10:22:14;;;;;;;4.23;3.83;;;;;;;19.79;61.13;100157.72;4988939;28;20264;-78
2021/10/03 10:24:49;;;;;;;3.90;3.50;;;;;;;19.85;59.97;100175.75;5004955;28;20199;-78
2021/10/03 10:27:21;;;;;;;4.47;3.80;;;;;;;19.96;60.08;100164.13;4972428;28;20250;-77
2021/10/03 10:29:54;;;;;;;5.07;3.73;;;;;;;20.11;59.80;100166.31;4989705;28;20275;-79
2021/10/03 10:32:22;;;;;;;5.60;4.17;;;;;;;20.36;59.23;100166.41;4973042;28;20220;-77
2021/10/03 10:35:09;;;;;;;4.97;4.00;;;;;;;20.69;57.20;100145.34;4976278;28;20196;-78
2021/10/03 10:37:50;;;;;;;4.10;3.70;;;;;;;21.00;56.35;100156.47;4991618;28;20195;-78
2021/10/03 10:40:22;;;;;;;4.00;3.50;;;;;;;21.18;55.78;100150.63;5008836;28;20610;-78
2021/10/03 10:42:55;;;;;;;3.50;3.20;;;;;;;21.18;56.11;100150.63;4978426;28;20328;-78
2021/10/03 10:45:26;;;;;;;4.80;3.33;;;;;;;20.89;57.69;100142.94;5010688;28;20279;-79
2021/10/03 10:48:10;;;;;;;4.37;3.70;;;;;;;20.94;57.17;100142.81;5007127;28;20205;-79
2021/10/03 10:50:44;;;;;;;6.00;3.70;;;;;;;21.37;54.93;100149.09;5005086;28;20615;-79
2021/10/03 10:53:25;;;;;;;3.60;3.30;;;;;;;21.91;53.30;100141.03;4989704;28;20223;-78
2021/10/03 10:56:18;;;;;;;3.70;3.40;;;;;;;22.28;53.38;100136.09;5010428;28;20179;-79
2021/10/03 10:58:50;;;;;;;5.00;3.30;;;;;;;21.80;54.69;100133.63;4989511;28;20196;-78
2021/10/03 11:01:16;;;;;;;4.73;4.00;;;;;;;21.68;54.63;100131.44;4974005;28;20218;-79
2021/10/03 11:03:42;;;;;;;3.53;3.20;;;;;;;21.88;54.89;100139.38;4956662;28;20263;-77
2021/10/03 11:06:11;;;;;;;3.70;3.10;;;;;;;22.41;53.16;100134.69;4973831;28;20192;-77
2021/10/03 11:08:57;;;;;;;5.40;3.37;;;;;;;22.30;52.72;100140.34;4974699;28;20181;-79
2021/10/03 11:11:29;;;;;;;3.57;3.27;;;;;;;22.19;53.58;100145.13;4972671;28;20588;-77
2021/10/03 11:14:00;;;;;;;4.03;3.30;;;;;;;22.53;53.34;100133.38;4974103;28;20600;-80
2021/10/03 11:16:34;;;;;;;4.03;3.57;;;;;;;22.97;51.62;100140.25;4989197;28;20291;-78
2021/10/03 11:19:14;;;;;;;6.67;3.30;;;;;;;23.36;50.74;100130.72;5004811;28;20203;-78
2021/10/03 11:21:42;;;;;;;5.22;3.25;;;;;;;23.93;49.46;100134.19;4972731;28;20188;-79
2021/10/03 11:24:10;;;;;;;3.50;3.20;;;;;;;23.83;48.60;100139.88;4974628;28;20192;-79
2021/10/03 11:26:45;;;;;;;5.97;3.30;;;;;;;23.26;50.48;100145.97;4974356;28;20199;-79